createdAt,value
2023-03-27T00:02:19.340Z,97104.22
2023-03-27T00:04:46.784Z,97109.59
2023-03-27T00:07:14.067Z,97102.69
2023-03-27T00:09:44.374Z,97102.25
2023-03-27T00:12:11.602Z,97095.81
2023-03-27T00:14:38.951Z,97095.47
2023-03-27T00:17:06.351Z,97084.72
2023-03-27T00:19:34.216Z,97077.84
2023-03-27T00:22:01.517Z,97083.28
2023-03-27T00:24:28.835Z,97082.53
2023-03-27T00:26:56.644Z,97081.81
2023-03-27T00:29:24.244Z,97077.97
2023-03-27T00:31:51.549Z,97085.72
2023-03-27T00:34:18.969Z,97076.84
2023-03-27T00:36:51.343Z,97078.38
2023-03-27T00:39:19.523Z,97078.38
2023-03-27T00:41:47.538Z,97084.56
2023-03-27T00:44:22.222Z,97078.78
2023-03-27T00:46:50.117Z,97080.34
2023-03-27T00:49:17.569Z,97079.19
2023-03-27T00:51:46.972Z,97085.34
2023-03-27T00:54:22.260Z,97075.72
2023-03-27T00:56:50.165Z,97077.25
2023-03-27T00:59:21.730Z,97087.31
2023-03-27T01:01:49.520Z,97092.31
2023-03-27T01:04:21.727Z,97083.03
2023-03-27T01:06:52.244Z,97092.31
2023-03-27T01:09:21.310Z,97085.75
2023-03-27T01:11:49.110Z,97080.34
2023-03-27T01:14:25.230Z,97080.38
2023-03-27T01:17:11.115Z,97069.16
2023-03-27T01:19:52.447Z,97080.72
2023-03-27T01:22:20.070Z,97076.13
2023-03-27T01:25:09.404Z,97081.13
2023-03-27T01:27:48.776Z,97077.94
2023-03-27T01:30:16.126Z,97080.91
2023-03-27T01:33:01.921Z,97079.63
2023-03-27T01:35:52.199Z,97083.22
2023-03-27T01:38:38.573Z,97074.91
2023-03-27T01:41:12.455Z,97070.28
2023-03-27T01:43:58.767Z,97077.63
2023-03-27T01:46:35.714Z,97086.09
2023-03-27T01:49:10.826Z,97079.97
2023-03-27T01:51:39.968Z,97082.28
2023-03-27T01:54:18.533Z,97086.91
2023-03-27T01:56:54.146Z,97086.53
2023-03-27T01:59:25.100Z,97092.31
2023-03-27T02:01:59.475Z,97096.59
2023-03-27T02:04:31.074Z,97098.13
2023-03-27T02:07:00.834Z,97096.97
2023-03-27T02:09:33.997Z,97095.06
2023-03-27T02:12:12.155Z,97090.44
2023-03-27T02:14:45.332Z,97093.50
2023-03-27T02:17:14.289Z,97092.38
2023-03-27T02:19:47.677Z,97095.06
2023-03-27T02:22:15.906Z,97104.31
2023-03-27T02:24:46.924Z,97097.00
2023-03-27T02:27:38.451Z,97098.91
2023-03-27T02:30:20.491Z,97107.03
2023-03-27T02:32:47.957Z,97114.78
2023-03-27T02:35:23.735Z,97107.03
2023-03-27T02:37:58.874Z,97111.28
2023-03-27T02:40:50.695Z,97112.44
2023-03-27T02:43:42.447Z,97108.97
2023-03-27T02:46:21.386Z,97115.16
2023-03-27T02:48:54.365Z,97113.59
2023-03-27T02:51:25.506Z,97115.94
2023-03-27T02:53:59.961Z,97111.25
2023-03-27T02:56:32.416Z,97116.69
2023-03-27T02:59:04.172Z,97115.13
2023-03-27T03:01:36.666Z,97114.75
2023-03-27T03:04:28.646Z,97117.06
2023-03-27T03:07:14.591Z,97117.41
2023-03-27T03:09:42.917Z,97110.84
2023-03-27T03:12:10.410Z,97118.19
2023-03-27T03:14:45.748Z,97111.59
2023-03-27T03:17:13.968Z,97111.94
2023-03-27T03:19:41.504Z,97121.97
2023-03-27T03:22:09.000Z,97118.84
2023-03-27T03:24:37.755Z,97117.66
2023-03-27T03:27:05.973Z,97118.81
2023-03-27T03:29:44.549Z,97108.69
2023-03-27T03:32:17.328Z,97110.97
2023-03-27T03:34:48.674Z,97101.25
2023-03-27T03:37:16.424Z,97107.75
2023-03-27T03:39:43.737Z,97100.75
2023-03-27T03:42:22.781Z,97116.22
2023-03-27T03:44:53.060Z,97119.28
2023-03-27T03:47:22.466Z,97116.88
2023-03-27T03:49:50.628Z,97123.78
2023-03-27T03:52:18.050Z,97112.53
2023-03-27T03:54:46.826Z,97113.63
2023-03-27T03:57:14.592Z,97116.75
2023-03-27T03:59:43.998Z,97127.53
2023-03-27T04:02:38.612Z,97125.91
2023-03-27T04:05:10.769Z,97129.34
2023-03-27T04:07:40.426Z,97125.00
2023-03-27T04:10:38.128Z,97134.69
2023-03-27T04:13:10.939Z,97136.59
2023-03-27T04:15:47.770Z,97132.25
2023-03-27T04:18:19.847Z,97132.63
2023-03-27T04:20:50.942Z,97129.06
2023-03-27T04:23:20.275Z,97129.81
2023-03-27T04:25:48.484Z,97129.72
2023-03-27T04:28:22.963Z,97127.34
2023-03-27T04:31:06.632Z,97130.44
2023-03-27T04:33:40.497Z,97133.06
2023-03-27T04:36:42.960Z,97140.38
2023-03-27T04:39:16.805Z,97141.88
2023-03-27T04:41:49.606Z,97142.16
2023-03-27T04:44:20.288Z,97146.31
2023-03-27T04:46:51.119Z,97139.50
2023-03-27T04:49:19.443Z,97136.88
2023-03-27T04:51:58.078Z,97140.00
2023-03-27T04:54:32.094Z,97134.94
2023-03-27T04:57:02.332Z,97136.09
2023-03-27T04:59:33.335Z,97134.56
2023-03-27T05:02:21.668Z,97138.41
2023-03-27T05:04:58.851Z,97140.81
2023-03-27T05:07:32.173Z,97145.16
2023-03-27T05:10:02.361Z,97151.00
2023-03-27T05:12:30.398Z,97142.50
2023-03-27T05:15:04.463Z,97147.47
2023-03-27T05:17:42.468Z,97151.78
2023-03-27T05:20:15.433Z,97156.41
2023-03-27T05:22:44.118Z,97161.34
2023-03-27T05:25:32.759Z,97161.22
2023-03-27T05:28:03.364Z,97158.19
2023-03-27T05:30:33.792Z,97156.25
2023-03-27T05:33:16.808Z,97153.56
2023-03-27T05:35:48.511Z,97151.34
2023-03-27T05:38:17.247Z,97155.31
2023-03-27T05:41:07.564Z,97154.13
2023-03-27T05:43:40.031Z,97152.97
2023-03-27T05:46:07.928Z,97156.47
2023-03-27T05:48:36.851Z,97150.06
2023-03-27T05:51:05.062Z,97147.09
2023-03-27T05:53:33.746Z,97145.25
2023-03-27T05:56:15.611Z,97140.41
2023-03-27T05:58:53.815Z,97143.25
2023-03-27T06:01:23.855Z,97152.75
2023-03-27T06:03:56.381Z,97146.91
2023-03-27T06:06:33.110Z,97150.31
2023-03-27T06:09:00.567Z,97143.16
2023-03-27T06:11:28.777Z,97141.19
2023-03-27T06:13:58.739Z,97144.38
2023-03-27T06:16:44.957Z,97143.25
2023-03-27T06:19:50.524Z,97139.16
2023-03-27T06:22:17.915Z,97143.94
2023-03-27T06:24:48.021Z,97138.16
2023-03-27T06:27:20.431Z,97140.47
2023-03-27T06:29:48.633Z,97135.31
2023-03-27T06:32:17.300Z,97141.72
2023-03-27T06:34:50.539Z,97139.41
2023-03-27T06:37:37.317Z,97134.81
2023-03-27T06:40:09.774Z,97142.28
2023-03-27T06:42:40.433Z,97139.69
2023-03-27T06:45:31.750Z,97130.22
2023-03-27T06:48:21.938Z,97122.63
2023-03-27T06:50:53.493Z,97128.72
2023-03-27T06:53:27.263Z,97118.06
2023-03-27T06:55:56.380Z,97131.53
2023-03-27T06:58:25.596Z,97116.41
2023-03-27T07:00:53.467Z,97113.84
2023-03-27T07:03:21.723Z,97114.16
2023-03-27T07:06:25.485Z,97119.81
2023-03-27T07:09:02.315Z,97121.63
2023-03-27T07:11:32.109Z,97116.28
2023-03-27T07:14:06.943Z,97115.06
2023-03-27T07:16:34.308Z,97111.22
2023-03-27T07:19:02.544Z,97112.59
2023-03-27T07:21:32.746Z,97109.97
2023-03-27T07:24:00.599Z,97109.16
2023-03-27T07:26:33.059Z,97109.53
2023-03-27T07:29:03.434Z,97104.41
2023-03-27T07:32:09.536Z,97106.81
2023-03-27T07:34:48.229Z,97099.19
2023-03-27T07:37:33.966Z,97098.03
2023-03-27T07:40:29.540Z,97106.63
2023-03-27T07:43:36.804Z,97104.25
2023-03-27T07:46:06.658Z,97097.44
2023-03-27T07:48:36.114Z,97100.22
2023-03-27T07:51:13.365Z,97102.63
2023-03-27T07:53:41.796Z,97100.44
2023-03-27T07:56:15.544Z,97102.13
2023-03-27T07:58:46.601Z,97095.78
2023-03-27T08:01:19.185Z,97090.44
2023-03-27T08:03:48.966Z,97096.28
2023-03-27T08:06:18.345Z,97086.75
2023-03-27T08:08:46.214Z,97086.66
2023-03-27T08:11:27.235Z,97089.31
2023-03-27T08:13:58.800Z,97079.13
2023-03-27T08:16:30.064Z,97067.50
2023-03-27T08:19:01.450Z,97073.88
2023-03-27T08:21:33.558Z,97068.34
2023-03-27T08:24:02.932Z,97071.91
2023-03-27T08:26:36.544Z,97069.78
2023-03-27T08:29:08.599Z,97062.47
2023-03-27T08:31:36.940Z,97064.75
2023-03-27T08:34:06.007Z,97070.78
2023-03-27T08:36:41.797Z,97069.91
2023-03-27T08:39:09.408Z,97074.00
2023-03-27T08:41:50.081Z,97064.75
2023-03-27T08:44:23.708Z,97058.41
2023-03-27T08:46:56.678Z,97058.13
2023-03-27T08:49:28.901Z,97063.69
2023-03-27T08:52:24.410Z,97068.16
2023-03-27T08:54:58.725Z,97060.25
2023-03-27T08:57:39.283Z,97053.94
2023-03-27T09:00:35.656Z,97054.75
2023-03-27T09:03:22.639Z,97045.81
2023-03-27T09:06:04.060Z,97040.38
2023-03-27T09:08:44.070Z,97035.97
2023-03-27T09:11:24.211Z,97042.75
2023-03-27T09:13:59.071Z,97044.13
2023-03-27T09:16:32.485Z,97050.28
2023-03-27T09:21:41.044Z,97043.81
2023-03-27T09:24:16.821Z,97047.06
2023-03-27T09:27:17.976Z,97054.91
2023-03-27T09:30:05.666Z,97044.97
2023-03-27T09:32:54.803Z,97041.88
2023-03-27T09:35:22.239Z,97035.16
2023-03-27T09:37:58.769Z,97038.28
2023-03-27T09:40:31.566Z,97039.75
2023-03-27T09:43:10.062Z,97019.41
2023-03-27T09:45:40.947Z,97037.41
2023-03-27T09:48:29.126Z,97030.19
2023-03-27T09:50:57.308Z,97018.38
2023-03-27T09:53:33.234Z,97023.34
2023-03-27T09:56:16.541Z,97021.47
2023-03-27T09:58:49.440Z,97019.06
2023-03-27T10:01:28.258Z,97017.66
2023-03-27T10:04:01.421Z,97002.16
2023-03-27T10:06:38.928Z,96995.47
2023-03-27T10:09:24.713Z,97000.41
2023-03-27T10:12:02.133Z,97004.22
2023-03-27T10:14:31.163Z,97005.91
2023-03-27T10:16:58.637Z,96996.16
2023-03-27T10:19:28.773Z,97001.38
2023-03-27T10:22:01.374Z,96995.47
2023-03-27T10:24:33.948Z,96999.91
2023-03-27T10:27:04.737Z,96977.47
2023-03-27T10:29:35.201Z,96992.50
2023-03-27T10:32:04.444Z,96995.28
2023-03-27T10:34:58.289Z,96974.91
2023-03-27T10:37:49.744Z,96980.16
2023-03-27T10:40:38.072Z,96981.13
2023-03-27T10:43:25.280Z,96977.91
2023-03-27T10:45:56.627Z,96978.84
2023-03-27T10:48:48.015Z,96973.97
2023-03-27T10:51:20.504Z,96977.81
2023-03-27T10:54:06.405Z,96957.97
2023-03-27T10:56:51.901Z,96965.13
2023-03-27T10:59:38.288Z,96973.69
2023-03-27T11:02:14.183Z,96960.84
2023-03-27T11:04:51.727Z,96961.63
2023-03-27T11:07:27.244Z,96953.53
2023-03-27T11:10:02.465Z,96946.22
2023-03-27T11:12:34.437Z,96950.19
2023-03-27T11:15:15.755Z,96962.06
2023-03-27T11:17:53.327Z,96957.66
2023-03-27T11:20:46.473Z,96948.81
2023-03-27T11:23:23.353Z,96967.56
2023-03-27T11:26:13.309Z,96953.69
2023-03-27T11:28:57.036Z,96956.31
2023-03-27T11:31:46.796Z,96964.53
2023-03-27T11:34:29.705Z,96954.16
2023-03-27T11:37:21.001Z,96952.31
2023-03-27T11:39:53.477Z,96948.34
2023-03-27T11:42:24.528Z,96940.56
2023-03-27T11:44:52.249Z,96944.41
2023-03-27T11:47:53.508Z,96947.28
2023-03-27T11:50:24.554Z,96945.75
2023-03-27T11:52:55.815Z,96941.19
2023-03-27T11:56:03.242Z,96944.09
2023-03-27T11:58:41.153Z,96947.13
2023-03-27T12:01:13.823Z,96935.53
2023-03-27T12:03:55.054Z,96945.75
2023-03-27T12:06:45.449Z,96937.38
2023-03-27T12:09:32.254Z,96945.75
2023-03-27T12:12:37.785Z,96934.78
2023-03-27T12:15:26.310Z,96926.81
2023-03-27T12:18:03.640Z,96924.72
2023-03-27T12:20:54.686Z,96935.84
2023-03-27T12:23:29.121Z,96927.00
2023-03-27T12:26:34.518Z,96933.41
2023-03-27T12:29:27.336Z,96916.47
2023-03-27T12:32:08.232Z,96926.38
2023-03-27T12:34:50.530Z,96933.72
2023-03-27T12:37:20.212Z,96931.72
2023-03-27T12:39:57.407Z,96922.56
2023-03-27T12:42:44.015Z,96924.72
2023-03-27T12:45:16.164Z,96928.50
2023-03-27T12:48:05.276Z,96921.50
2023-03-27T12:50:40.512Z,96931.41
2023-03-27T12:53:19.066Z,96918.44
2023-03-27T12:55:49.033Z,96916.47
2023-03-27T12:58:33.221Z,96927.44
2023-03-27T13:01:24.684Z,96924.06
2023-03-27T13:04:16.934Z,96927.75
2023-03-27T13:06:47.287Z,96917.69
2023-03-27T13:09:17.075Z,96908.66
2023-03-27T13:11:55.516Z,96908.47
2023-03-27T13:14:25.024Z,96902.53
2023-03-27T13:16:57.003Z,96894.31
2023-03-27T13:19:51.351Z,96903.28
2023-03-27T13:22:44.450Z,96894.84
2023-03-27T13:25:25.558Z,96887.84
2023-03-27T13:28:08.719Z,96883.44
2023-03-27T13:30:52.700Z,96884.47
2023-03-27T13:34:07.774Z,96873.72
2023-03-27T13:36:35.705Z,96882.19
2023-03-27T13:39:06.973Z,96858.16
2023-03-27T13:41:49.623Z,96876.19
2023-03-27T13:44:26.505Z,96867.69
2023-03-27T13:47:12.614Z,96871.09
2023-03-27T13:50:01.993Z,96870.34
2023-03-27T13:52:48.226Z,96863.97
2023-03-27T13:55:28.256Z,96864.22
2023-03-27T13:58:13.715Z,96862.34
2023-03-27T14:01:01.066Z,96861.28
2023-03-27T14:03:32.186Z,96859.22
2023-03-27T14:06:42.201Z,96852.44
2023-03-27T14:09:12.163Z,96856.03
2023-03-27T14:12:08.351Z,96856.06
2023-03-27T14:15:16.765Z,96846.78
2023-03-27T14:18:04.727Z,96840.00
2023-03-27T14:20:34.488Z,96846.88
2023-03-27T14:23:05.966Z,96838.75
2023-03-27T14:26:03.773Z,96844.19
2023-03-27T14:28:47.069Z,96830.84
2023-03-27T14:31:19.454Z,96846.09
2023-03-27T14:34:06.723Z,96845.00
2023-03-27T14:36:42.575Z,96856.22
2023-03-27T14:39:22.839Z,96848.94
2023-03-27T14:41:57.501Z,96843.16
2023-03-27T14:44:27.759Z,96841.16
2023-03-27T14:47:03.939Z,96844.88
2023-03-27T14:49:39.220Z,96849.13
2023-03-27T14:52:32.420Z,96846.53
2023-03-27T14:55:27.588Z,96847.41
2023-03-27T14:58:18.816Z,96835.63
2023-03-27T15:00:53.216Z,96841.47
2023-03-27T15:03:24.303Z,96841.06
2023-03-27T15:06:07.567Z,96843.69
2023-03-27T15:08:46.866Z,96836.19
2023-03-27T15:11:21.797Z,96830.44
2023-03-27T15:13:57.036Z,96822.69
2023-03-27T15:16:32.651Z,96812.91
2023-03-27T15:19:12.575Z,96800.63
2023-03-27T15:21:53.494Z,96787.84
2023-03-27T15:24:26.851Z,96792.53
2023-03-27T15:26:55.749Z,96785.50
2023-03-27T15:29:35.144Z,96779.38
2023-03-27T15:32:09.051Z,96770.59
2023-03-27T15:34:46.401Z,96789.34
2023-03-27T15:37:23.553Z,96771.38
2023-03-27T15:39:59.983Z,96766.09
2023-03-27T15:42:35.276Z,96755.84
2023-03-27T15:45:12.388Z,96748.81
2023-03-27T15:48:07.075Z,96747.16
2023-03-27T15:50:35.444Z,96754.22
2023-03-27T15:53:03.525Z,96742.47
2023-03-27T15:55:55.795Z,96748.31
2023-03-27T15:58:31.258Z,96744.31
2023-03-27T16:01:02.691Z,96740.34
2023-03-27T16:03:46.487Z,96737.91
2023-03-27T16:06:22.272Z,96730.97
2023-03-27T16:08:49.791Z,96704.44
2023-03-27T16:11:31.852Z,96704.44
2023-03-27T16:13:59.484Z,96701.41
2023-03-27T16:16:28.270Z,96703.63
2023-03-27T16:18:58.724Z,96702.00
2023-03-27T16:21:26.989Z,96695.47
2023-03-27T16:23:54.404Z,96699.22
2023-03-27T16:26:30.900Z,96702.22
2023-03-27T16:29:00.160Z,96699.00
2023-03-27T16:31:27.545Z,96693.69
2023-03-27T16:33:54.936Z,96685.56
2023-03-27T16:36:25.836Z,96683.97
2023-03-27T16:38:53.310Z,96692.75
2023-03-27T16:41:20.599Z,96666.28
2023-03-27T16:43:49.156Z,96668.72
2023-03-27T16:46:27.226Z,96669.31
2023-03-27T16:48:57.104Z,96658.38
2023-03-27T16:51:25.461Z,96678.63
2023-03-27T16:53:53.190Z,96679.28
2023-03-27T16:56:21.373Z,96675.16
2023-03-27T16:58:48.651Z,96676.50
2023-03-27T17:01:16.009Z,96672.78
2023-03-27T17:03:46.944Z,96677.13
2023-03-27T17:06:15.455Z,96676.81
2023-03-27T17:08:42.813Z,96669.78
2023-03-27T17:11:13.966Z,96668.53
2023-03-27T17:13:43.557Z,96693.19
2023-03-27T17:16:11.084Z,96676.56
2023-03-27T17:18:38.439Z,96667.34
2023-03-27T17:21:05.792Z,96669.72
2023-03-27T17:23:33.180Z,96662.44
2023-03-27T17:26:02.054Z,96669.84
2023-03-27T17:28:31.047Z,96667.13
2023-03-27T17:31:04.497Z,96654.56
2023-03-27T17:33:33.018Z,96644.31
2023-03-27T17:36:00.610Z,96645.88
2023-03-27T17:38:28.247Z,96648.91
2023-03-27T17:40:55.533Z,96639.41
2023-03-27T17:43:23.092Z,96644.88
2023-03-27T17:45:51.454Z,96633.69
2023-03-27T17:48:19.069Z,96635.09
2023-03-27T17:50:54.733Z,96639.03
2023-03-27T17:53:31.811Z,96629.19
2023-03-27T17:56:02.716Z,96628.78
2023-03-27T17:58:31.580Z,96621.75
2023-03-27T18:01:21.568Z,96623.38
2023-03-27T18:03:51.939Z,96624.81
2023-03-27T18:06:20.296Z,96625.47
2023-03-27T18:08:47.656Z,96617.47
2023-03-27T18:11:17.599Z,96612.34
2023-03-27T18:13:45.307Z,96616.69
2023-03-27T18:16:12.925Z,96615.75
2023-03-27T18:18:40.633Z,96618.88
2023-03-27T18:21:08.876Z,96613.56
2023-03-27T18:23:38.112Z,96619.41
2023-03-27T18:26:13.418Z,96606.44
2023-03-27T18:28:40.711Z,96604.09
2023-03-27T18:31:09.269Z,96604.03
2023-03-27T18:33:36.634Z,96592.09
2023-03-27T18:36:04.696Z,96597.38
2023-03-27T18:38:32.848Z,96602.72
2023-03-27T18:41:00.471Z,96590.78
2023-03-27T18:43:27.970Z,96596.22
2023-03-27T18:45:59.644Z,96591.19
2023-03-27T18:48:27.668Z,96592.97
2023-03-27T18:50:55.894Z,96600.63
2023-03-27T18:53:23.594Z,96600.56
2023-03-27T18:55:51.882Z,96600.09
2023-03-27T18:58:19.813Z,96599.34
2023-03-27T19:00:47.004Z,96597.16
2023-03-27T19:03:20.348Z,96603.41
2023-03-27T19:05:48.390Z,96596.41
2023-03-27T19:08:15.843Z,96595.03
2023-03-27T19:10:43.436Z,96594.91
2023-03-27T19:13:36.818Z,96585.38
2023-03-27T19:16:30.700Z,96596.88
2023-03-27T19:19:15.874Z,96589.28
2023-03-27T19:21:49.478Z,96586.16
2023-03-27T19:24:26.553Z,96594.84
2023-03-27T19:26:54.218Z,96589.41
2023-03-27T19:29:21.446Z,96592.63
2023-03-27T19:31:52.126Z,96586.44
2023-03-27T19:34:21.893Z,96585.25
2023-03-27T19:36:52.218Z,96589.78
2023-03-27T19:39:22.350Z,96597.72
2023-03-27T19:41:49.910Z,96595.75
2023-03-27T19:44:20.104Z,96588.13
2023-03-27T19:46:47.905Z,96598.59
2023-03-27T19:49:16.286Z,96586.25
2023-03-27T19:52:07.590Z,96582.28
2023-03-27T19:54:34.875Z,96583.06
2023-03-27T19:57:02.889Z,96587.72
2023-03-27T19:59:31.303Z,96584.16
2023-03-27T20:01:58.978Z,96591.78
2023-03-27T20:04:26.664Z,96596.16
2023-03-27T20:06:59.174Z,96592.75
2023-03-27T20:09:26.472Z,96601.47
2023-03-27T20:11:55.116Z,96610.16
2023-03-27T20:14:22.366Z,96602.78
2023-03-27T20:16:51.239Z,96592.06
2023-03-27T20:19:19.802Z,96598.19
2023-03-27T20:21:49.742Z,96596.94
2023-03-27T20:24:18.582Z,96593.06
2023-03-27T20:26:57.340Z,96593.91
2023-03-27T20:29:26.082Z,96597.31
2023-03-27T20:31:53.380Z,96599.78
2023-03-27T20:34:22.889Z,96601.16
2023-03-27T20:36:53.478Z,96597.16
2023-03-27T20:39:44.805Z,96598.97
2023-03-27T20:42:15.285Z,96599.25
2023-03-27T20:44:43.842Z,96596.72
2023-03-27T20:47:12.683Z,96597.78
2023-03-27T20:49:44.236Z,96591.47
2023-03-27T20:52:13.121Z,96592.00
2023-03-27T20:54:41.024Z,96595.53
2023-03-27T20:57:11.481Z,96604.25
2023-03-27T20:59:39.169Z,96606.63
2023-03-27T21:02:07.023Z,96599.00
2023-03-27T21:04:34.383Z,96596.38
2023-03-27T21:07:01.852Z,96608.97
2023-03-27T21:09:29.320Z,96610.00
2023-03-27T21:11:57.131Z,96605.47
2023-03-27T21:14:24.514Z,96599.16
2023-03-27T21:16:51.731Z,96601.06
2023-03-27T21:19:21.508Z,96603.41
2023-03-27T21:22:39.250Z,96607.19
2023-03-27T21:25:14.522Z,96604.41
2023-03-27T21:27:41.772Z,96618.19
2023-03-27T21:30:09.973Z,96601.75
2023-03-27T21:32:37.174Z,96613.44
2023-03-27T21:35:04.724Z,96606.72
2023-03-27T21:37:32.637Z,96609.91
2023-03-27T21:40:00.165Z,96604.19
2023-03-27T21:42:27.412Z,96614.72
2023-03-27T21:44:57.136Z,96618.22
2023-03-27T21:47:31.695Z,96606.78
2023-03-27T21:50:09.052Z,96600.03
2023-03-27T21:52:36.333Z,96595.75
2023-03-27T21:55:12.823Z,96601.38
2023-03-27T21:57:42.945Z,96601.41
2023-03-27T22:00:11.800Z,96598.13
2023-03-27T22:02:42.320Z,96594.03
2023-03-27T22:05:11.001Z,96592.34
2023-03-27T22:07:38.237Z,96594.59
2023-03-27T22:10:06.718Z,96593.81
2023-03-27T22:12:37.675Z,96604.50
2023-03-27T22:15:08.023Z,96593.13
2023-03-27T22:17:36.634Z,96594.31
2023-03-27T22:20:05.157Z,96587.41
2023-03-27T22:22:34.399Z,96594.41
2023-03-27T22:25:01.666Z,96586.38
2023-03-27T22:27:30.320Z,96596.13
2023-03-27T22:29:57.501Z,96594.91
2023-03-27T22:32:24.807Z,96595.47
2023-03-27T22:34:52.107Z,96591.22
2023-03-27T22:37:21.142Z,96588.72
2023-03-27T22:39:48.404Z,96592.13
2023-03-27T22:42:15.692Z,96591.56
2023-03-27T22:44:42.925Z,96584.34
2023-03-27T22:47:10.293Z,96589.66
2023-03-27T22:49:37.658Z,96578.41
2023-03-27T22:52:04.953Z,96576.75
2023-03-27T22:54:32.294Z,96585.03
2023-03-27T22:56:59.758Z,96584.59
2023-03-27T22:59:27.067Z,96589.44
2023-03-27T23:01:54.533Z,96585.84
2023-03-27T23:04:23.333Z,96583.38
2023-03-27T23:06:51.360Z,96582.91
2023-03-27T23:09:18.636Z,96584.84
2023-03-27T23:11:47.395Z,96583.31
2023-03-27T23:14:14.686Z,96571.00
2023-03-27T23:16:42.012Z,96569.34
2023-03-27T23:19:09.278Z,96582.13
2023-03-27T23:21:36.647Z,96585.97
2023-03-27T23:24:03.929Z,96585.16
2023-03-27T23:26:31.177Z,96587.03
2023-03-27T23:28:58.601Z,96591.63
2023-03-27T23:31:26.011Z,96599.38
2023-03-27T23:33:53.290Z,96590.44
2023-03-27T23:36:21.977Z,96589.69
2023-03-27T23:38:49.494Z,96589.03
2023-03-27T23:41:17.605Z,96588.69
2023-03-27T23:43:45.488Z,96594.09
2023-03-27T23:46:13.237Z,96604.94
2023-03-27T23:48:41.625Z,96604.53
2023-03-27T23:51:09.408Z,96599.03
2023-03-27T23:53:36.973Z,96598.88
2023-03-27T23:56:04.622Z,96598.16
2023-03-27T23:58:34.937Z,96596.53
